Terminal Aerodrome Forecast
Issued by NWS

Home | Current Version | Previous Version | Text Only | Print | Product List | Glossary On
Versions: 1 2 3 4 5 6 7 8 9 10 11 12 13 14 15 16 17
000
FTAK31 PANC 240302 AAA
TAFAHO
TAF AMD
PAHO 240302Z 2403/2424 25012KT P6SM SKC
      TEMPO 2403/2405 25012G20KT
     FM240700 VRB03KT P6SM SCT120
     FM242100 24012KT P6SM SKC=

USA.gov is the U.S. government's official web portal to all federal, state and local government web resources and services.